createdAt,value
2017-09-29T00:00:25.603Z,73.02
2017-09-29T00:00:57.254Z,73.08
2017-09-29T00:01:28.897Z,73.14
2017-09-29T00:02:00.754Z,73.15
2017-09-29T00:02:32.406Z,73.09
2017-09-29T00:03:04.054Z,73.41
2017-09-29T00:03:35.706Z,73.08
2017-09-29T00:04:07.350Z,73.22
2017-09-29T00:04:38.997Z,73.35
2017-09-29T00:05:10.678Z,73.17
2017-09-29T00:05:42.627Z,73.22
2017-09-29T00:06:14.278Z,73.11
2017-09-29T00:06:45.921Z,73.18
2017-09-29T00:07:17.860Z,73.28
2017-09-29T00:07:49.510Z,73.55
2017-09-29T00:08:21.154Z,73.16
2017-09-29T00:08:52.797Z,73.17
2017-09-29T00:09:24.446Z,73.15
2017-09-29T00:09:56.089Z,73.20
2017-09-29T00:10:27.730Z,73.16
2017-09-29T00:10:59.373Z,73.22
2017-09-29T00:11:31.018Z,73.36
2017-09-29T00:12:02.667Z,73.19
2017-09-29T00:12:34.315Z,73.16
2017-09-29T00:13:05.958Z,73.27
2017-09-29T00:13:37.606Z,73.22
2017-09-29T00:14:09.254Z,73.11
2017-09-29T00:14:40.958Z,73.08
2017-09-29T00:15:12.609Z,73.14
2017-09-29T00:15:44.261Z,73.17
2017-09-29T00:16:15.909Z,73.04
2017-09-29T00:16:47.558Z,73.10
2017-09-29T00:17:19.206Z,73.05
2017-09-29T00:17:50.858Z,73.06
2017-09-29T00:18:22.501Z,73.17
2017-09-29T00:18:54.150Z,72.98
2017-09-29T00:19:25.930Z,72.96
2017-09-29T00:19:57.823Z,73.04
2017-09-29T00:20:29.474Z,73.10
2017-09-29T00:21:01.122Z,73.11
2017-09-29T00:21:32.805Z,73.12
2017-09-29T00:22:04.675Z,73.01
2017-09-29T00:22:36.325Z,72.98
2017-09-29T00:23:07.965Z,72.95
2017-09-29T00:23:39.609Z,72.93
2017-09-29T00:24:11.256Z,72.94
2017-09-29T00:24:43.909Z,73.00
2017-09-29T00:25:15.559Z,73.07
2017-09-29T00:25:47.209Z,73.04
2017-09-29T00:26:19.080Z,73.07
2017-09-29T00:26:50.760Z,72.99
2017-09-29T00:27:22.413Z,72.96
2017-09-29T00:27:54.061Z,73.04
2017-09-29T00:28:25.709Z,73.04
2017-09-29T00:28:57.353Z,73.10
2017-09-29T00:29:29.001Z,73.03
2017-09-29T00:30:00.650Z,73.10
2017-09-29T00:30:32.297Z,73.07
2017-09-29T00:31:03.941Z,73.03
2017-09-29T00:31:35.645Z,73.20
2017-09-29T00:32:07.293Z,73.05
2017-09-29T00:32:39.269Z,73.11
2017-09-29T00:33:10.918Z,73.05
2017-09-29T00:33:42.573Z,73.11
2017-09-29T00:34:14.230Z,73.14
2017-09-29T00:34:46.003Z,72.98
2017-09-29T00:35:17.656Z,73.02
2017-09-29T00:35:49.302Z,73.08
2017-09-29T00:36:20.958Z,72.99
2017-09-29T00:36:52.646Z,73.04
2017-09-29T00:37:24.526Z,73.08
2017-09-29T00:37:56.170Z,72.94
2017-09-29T00:38:27.822Z,72.92
2017-09-29T00:38:59.753Z,72.96
2017-09-29T00:39:31.402Z,72.89
2017-09-29T00:40:03.061Z,73.16
2017-09-29T00:40:34.711Z,73.09
2017-09-29T00:41:06.365Z,73.23
2017-09-29T00:41:38.018Z,73.11
2017-09-29T00:42:09.673Z,73.14
2017-09-29T00:42:41.318Z,73.20
2017-09-29T00:43:12.962Z,73.13
2017-09-29T00:43:44.837Z,73.28
2017-09-29T00:44:16.678Z,73.36
2017-09-29T00:44:48.427Z,73.53
2017-09-29T00:45:20.078Z,73.30
2017-09-29T00:45:51.721Z,73.33
2017-09-29T00:46:23.370Z,73.40
2017-09-29T00:46:55.013Z,73.54
2017-09-29T00:47:26.653Z,73.39
2017-09-29T00:47:58.298Z,73.39
2017-09-29T00:48:29.945Z,73.41
2017-09-29T00:49:01.586Z,73.50
2017-09-29T00:49:33.230Z,73.28
2017-09-29T00:50:04.877Z,73.53
2017-09-29T00:50:36.522Z,73.50
2017-09-29T00:51:08.165Z,73.30
2017-09-29T00:51:39.805Z,73.37
2017-09-29T00:52:11.449Z,73.45
2017-09-29T00:52:43.089Z,73.41
2017-09-29T00:53:14.733Z,73.36
2017-09-29T00:53:46.646Z,73.36
2017-09-29T00:54:18.473Z,73.50
2017-09-29T00:54:50.237Z,73.45
2017-09-29T00:55:22.187Z,73.40
2017-09-29T00:55:54.136Z,73.51
2017-09-29T00:56:25.790Z,73.50
2017-09-29T00:56:57.437Z,73.43
2017-09-29T00:57:29.081Z,73.30
2017-09-29T00:58:00.725Z,73.28
2017-09-29T00:58:32.373Z,73.43
2017-09-29T00:59:04.054Z,73.34
2017-09-29T00:59:35.698Z,73.35
2017-09-29T01:00:07.399Z,73.37
2017-09-29T01:00:39.042Z,73.44
2017-09-29T01:01:10.685Z,73.29
2017-09-29T01:01:42.329Z,73.43
2017-09-29T01:02:13.978Z,73.45
2017-09-29T01:02:45.625Z,73.55
2017-09-29T01:03:17.273Z,73.50
2017-09-29T01:03:48.917Z,73.80
2017-09-29T01:04:20.566Z,73.53
2017-09-29T01:04:52.210Z,73.34
2017-09-29T01:05:23.998Z,73.30
2017-09-29T01:05:55.946Z,73.60
2017-09-29T01:06:27.896Z,73.38
2017-09-29T01:06:59.558Z,73.45
2017-09-29T01:07:31.487Z,73.58
2017-09-29T01:08:03.382Z,73.52
2017-09-29T01:08:35.052Z,73.64
2017-09-29T01:09:06.716Z,73.41
2017-09-29T01:09:38.668Z,73.53
2017-09-29T01:10:10.318Z,73.46
2017-09-29T01:10:41.965Z,73.33
2017-09-29T01:11:13.605Z,73.40
2017-09-29T01:11:45.254Z,73.38
2017-09-29T01:12:16.901Z,73.55
2017-09-29T01:12:48.794Z,73.38
2017-09-29T01:13:20.467Z,73.50
2017-09-29T01:13:52.121Z,73.44
2017-09-29T01:14:24.059Z,73.33
2017-09-29T01:14:55.706Z,73.55
2017-09-29T01:15:27.358Z,73.37
2017-09-29T01:15:59.006Z,73.53
2017-09-29T01:16:30.653Z,73.46
2017-09-29T01:17:02.294Z,73.42
2017-09-29T01:17:33.949Z,73.40
2017-09-29T01:18:05.641Z,73.37
2017-09-29T01:18:37.502Z,73.43
2017-09-29T01:19:09.154Z,73.59
2017-09-29T01:19:40.798Z,73.33
2017-09-29T01:20:12.445Z,73.48
2017-09-29T01:20:44.090Z,73.28
2017-09-29T01:21:15.734Z,73.24
2017-09-29T01:21:47.382Z,73.43
2017-09-29T01:22:19.025Z,73.56
2017-09-29T01:22:50.670Z,73.31
2017-09-29T01:23:22.563Z,73.37
2017-09-29T01:23:54.226Z,73.34
2017-09-29T01:24:26.110Z,73.43
2017-09-29T01:24:57.754Z,73.37
2017-09-29T01:25:29.399Z,73.38
2017-09-29T01:26:01.042Z,73.52
2017-09-29T01:26:32.689Z,73.30
2017-09-29T01:27:04.337Z,73.36
2017-09-29T01:27:35.981Z,73.31
2017-09-29T01:28:07.630Z,73.43
2017-09-29T01:28:39.329Z,73.40
2017-09-29T01:29:10.977Z,73.20
2017-09-29T01:29:42.625Z,73.24
2017-09-29T01:30:14.280Z,73.23
2017-09-29T01:30:45.925Z,73.31
2017-09-29T01:31:17.578Z,73.28
2017-09-29T01:31:49.414Z,73.25
2017-09-29T01:32:21.066Z,73.36
2017-09-29T01:32:52.724Z,73.23
2017-09-29T01:33:24.394Z,73.27
2017-09-29T01:33:56.232Z,73.23
2017-09-29T01:34:27.988Z,73.27
2017-09-29T01:34:59.637Z,73.29
2017-09-29T01:35:31.277Z,73.23
2017-09-29T01:36:02.921Z,73.28
2017-09-29T01:36:34.569Z,73.30
2017-09-29T01:37:06.217Z,73.30
2017-09-29T01:37:37.865Z,73.36
2017-09-29T01:38:09.505Z,73.23
2017-09-29T01:38:41.149Z,73.33
2017-09-29T01:39:13.072Z,73.32
2017-09-29T01:39:44.730Z,73.28
2017-09-29T01:40:16.377Z,73.43
2017-09-29T01:40:48.038Z,73.34
2017-09-29T01:41:19.686Z,73.30
2017-09-29T01:41:51.338Z,73.20
2017-09-29T01:42:22.985Z,73.54
2017-09-29T01:42:54.831Z,73.44
2017-09-29T01:43:26.473Z,73.36
2017-09-29T01:43:58.157Z,73.35
2017-09-29T01:44:29.845Z,73.30
2017-09-29T01:45:01.506Z,73.26
2017-09-29T01:45:33.389Z,73.21
2017-09-29T01:46:05.340Z,73.19
2017-09-29T01:46:36.990Z,73.25
2017-09-29T01:47:08.929Z,73.26
2017-09-29T01:47:40.585Z,73.28
2017-09-29T01:48:12.229Z,73.07
2017-09-29T01:48:43.869Z,73.16
2017-09-29T01:49:15.513Z,73.06
2017-09-29T01:49:47.346Z,73.04
2017-09-29T01:50:18.993Z,73.12
2017-09-29T01:50:50.641Z,73.14
2017-09-29T01:51:22.289Z,73.14
2017-09-29T01:51:53.932Z,73.07
2017-09-29T01:52:25.620Z,73.01
2017-09-29T01:52:57.269Z,73.01
2017-09-29T01:53:28.939Z,73.11
2017-09-29T01:54:00.890Z,73.02
2017-09-29T01:54:32.541Z,72.98
2017-09-29T01:55:04.225Z,73.03
2017-09-29T01:55:35.869Z,73.02
2017-09-29T01:56:07.767Z,73.04
2017-09-29T01:56:39.414Z,73.08
2017-09-29T01:57:11.058Z,73.02
2017-09-29T01:57:42.702Z,73.02
2017-09-29T01:58:14.637Z,73.02
2017-09-29T01:58:46.326Z,73.03
2017-09-29T01:59:17.977Z,73.07
2017-09-29T01:59:49.856Z,73.06
2017-09-29T02:00:21.819Z,73.08
2017-09-29T02:00:53.763Z,73.04
2017-09-29T02:01:25.719Z,73.05
2017-09-29T02:01:57.372Z,73.03
2017-09-29T02:02:29.022Z,73.03
2017-09-29T02:03:00.669Z,72.98
2017-09-29T02:03:32.317Z,73.06
2017-09-29T02:04:04.234Z,73.06
2017-09-29T02:04:36.067Z,72.96
2017-09-29T02:05:07.827Z,73.04
2017-09-29T02:05:39.776Z,73.12
2017-09-29T02:06:11.725Z,73.06
2017-09-29T02:06:43.378Z,73.22
2017-09-29T02:07:15.033Z,73.01
2017-09-29T02:07:46.676Z,73.08
2017-09-29T02:08:18.322Z,73.03
2017-09-29T02:08:49.966Z,73.10
2017-09-29T02:09:21.853Z,73.03
2017-09-29T02:09:53.521Z,73.15
2017-09-29T02:10:25.474Z,73.36
2017-09-29T02:10:57.421Z,73.31
2017-09-29T02:11:29.371Z,73.30
2017-09-29T02:12:01.017Z,73.26
2017-09-29T02:12:32.665Z,73.28
2017-09-29T02:13:04.310Z,73.22
2017-09-29T02:13:35.953Z,73.34
2017-09-29T02:14:07.888Z,73.36
2017-09-29T02:14:39.537Z,73.30
2017-09-29T02:15:11.189Z,73.35
2017-09-29T02:15:42.838Z,73.34
2017-09-29T02:16:14.485Z,73.38
2017-09-29T02:16:46.133Z,73.39
2017-09-29T02:17:17.781Z,73.30
2017-09-29T02:17:49.438Z,73.31
2017-09-29T02:18:21.082Z,73.32
2017-09-29T02:18:52.730Z,73.35
2017-09-29T02:19:24.417Z,73.29
2017-09-29T02:19:56.113Z,73.39
2017-09-29T02:20:27.898Z,73.34
2017-09-29T02:20:59.847Z,73.29
2017-09-29T02:21:31.767Z,73.39
2017-09-29T02:22:03.438Z,73.41
2017-09-29T02:22:35.264Z,73.31
2017-09-29T02:23:07.029Z,73.35
2017-09-29T02:23:38.978Z,73.46
2017-09-29T02:24:10.859Z,73.27
2017-09-29T02:24:42.501Z,73.24
2017-09-29T02:25:14.208Z,73.27
2017-09-29T02:25:46.104Z,73.23
2017-09-29T02:26:17.749Z,73.28
2017-09-29T02:26:49.398Z,73.44
2017-09-29T02:27:21.045Z,73.22
2017-09-29T02:27:52.725Z,73.38
2017-09-29T02:28:24.378Z,73.41
2017-09-29T02:28:56.023Z,73.36
2017-09-29T02:29:27.710Z,73.35
2017-09-29T02:29:59.593Z,73.27
2017-09-29T02:30:31.552Z,73.32
2017-09-29T02:31:03.203Z,73.24
2017-09-29T02:31:34.854Z,73.40
2017-09-29T02:32:06.501Z,73.34
2017-09-29T02:32:38.149Z,73.32
2017-09-29T02:33:09.798Z,73.43
2017-09-29T02:33:41.442Z,73.43
2017-09-29T02:34:13.086Z,73.47
2017-09-29T02:34:44.734Z,73.35
2017-09-29T02:35:16.636Z,73.32
2017-09-29T02:35:48.500Z,73.24
2017-09-29T02:36:20.145Z,73.36
2017-09-29T02:36:51.825Z,73.28
2017-09-29T02:37:23.705Z,73.65
2017-09-29T02:37:55.461Z,73.87
2017-09-29T02:38:27.110Z,73.59
2017-09-29T02:38:58.765Z,73.49
2017-09-29T02:39:30.409Z,73.53
2017-09-29T02:40:02.053Z,73.47
2017-09-29T02:40:33.701Z,73.50
2017-09-29T02:41:05.620Z,73.50
2017-09-29T02:41:37.269Z,73.57
2017-09-29T02:42:08.917Z,73.47
2017-09-29T02:42:40.557Z,73.45
2017-09-29T02:43:12.201Z,73.35
2017-09-29T02:43:43.849Z,73.39
2017-09-29T02:44:15.490Z,73.48
2017-09-29T02:44:47.137Z,73.44
2017-09-29T02:45:18.785Z,72.96
2017-09-29T02:45:50.594Z,72.74
2017-09-29T02:46:22.281Z,72.65
2017-09-29T02:46:54.297Z,72.49
2017-09-29T02:47:25.949Z,72.31
2017-09-29T02:47:57.597Z,72.07
2017-09-29T02:48:29.237Z,71.88
2017-09-29T02:49:00.887Z,71.73
2017-09-29T02:49:32.537Z,71.45
2017-09-29T02:50:04.181Z,71.38
2017-09-29T02:50:35.870Z,71.22
2017-09-29T02:51:07.736Z,70.72
2017-09-29T02:51:39.385Z,66.26
2017-09-29T02:52:11.034Z,66.13
2017-09-29T02:52:42.682Z,67.07
2017-09-29T02:53:14.325Z,67.39
2017-09-29T02:53:46.224Z,67.05
2017-09-29T02:54:17.893Z,66.94
2017-09-29T02:54:49.552Z,66.41
2017-09-29T02:55:21.194Z,66.74
2017-09-29T02:55:52.841Z,67.12
2017-09-29T02:56:25.380Z,64.34
2017-09-29T02:56:57.625Z,67.08
2017-09-29T02:57:31.224Z,66.80
2017-09-29T02:58:09.019Z,67.50
2017-09-29T02:58:41.457Z,66.99
2017-09-29T02:59:15.301Z,66.96
2017-09-29T02:59:48.749Z,67.16
2017-09-29T03:00:20.993Z,67.14
2017-09-29T03:00:53.249Z,67.47
2017-09-29T03:01:25.505Z,67.69
2017-09-29T03:01:57.761Z,67.94
2017-09-29T03:02:31.509Z,67.73
2017-09-29T03:03:03.821Z,68.14
2017-09-29T03:03:36.374Z,68.67
2017-09-29T03:04:10.284Z,68.86
2017-09-29T03:04:42.777Z,69.09
2017-09-29T03:05:14.985Z,69.14
2017-09-29T03:05:47.241Z,69.34
2017-09-29T03:06:18.900Z,69.15
2017-09-29T03:06:50.541Z,69.26
2017-09-29T03:07:22.491Z,69.39
2017-09-29T03:07:54.440Z,69.43
2017-09-29T03:08:26.089Z,69.48
2017-09-29T03:08:57.733Z,69.50
2017-09-29T03:09:29.377Z,69.44
2017-09-29T03:10:01.020Z,69.33
2017-09-29T03:10:32.667Z,69.51
2017-09-29T03:11:04.310Z,69.48
2017-09-29T03:11:35.948Z,69.25
2017-09-29T03:12:07.589Z,69.55
2017-09-29T03:12:39.418Z,69.49
2017-09-29T03:13:11.167Z,69.43
2017-09-29T03:13:42.833Z,69.30
2017-09-29T03:14:14.478Z,69.35
2017-09-29T03:14:46.125Z,69.14
2017-09-29T03:15:17.929Z,69.37
2017-09-29T03:15:49.684Z,69.48
2017-09-29T03:16:21.632Z,69.29
2017-09-29T03:16:53.282Z,69.45
2017-09-29T03:17:24.930Z,69.26
2017-09-29T03:17:56.574Z,69.33
2017-09-29T03:18:28.221Z,69.16
2017-09-29T03:18:59.862Z,69.15
2017-09-29T03:19:31.510Z,69.21
2017-09-29T03:20:03.157Z,69.36
2017-09-29T03:20:35.045Z,69.39
2017-09-29T03:21:06.713Z,69.26
2017-09-29T03:21:38.666Z,69.36
2017-09-29T03:22:10.615Z,69.23
2017-09-29T03:22:42.563Z,69.28
2017-09-29T03:23:14.385Z,69.34
2017-09-29T03:23:46.155Z,69.27
2017-09-29T03:24:18.103Z,69.37
2017-09-29T03:24:50.052Z,69.40
2017-09-29T03:25:21.743Z,69.26
2017-09-29T03:25:53.536Z,69.28
2017-09-29T03:26:25.286Z,69.35
2017-09-29T03:26:57.150Z,69.31
2017-09-29T03:27:28.797Z,69.40
2017-09-29T03:28:00.445Z,69.37
2017-09-29T03:28:32.089Z,69.37
2017-09-29T03:29:03.738Z,69.34
2017-09-29T03:29:35.377Z,69.33
2017-09-29T03:30:07.018Z,69.37
2017-09-29T03:30:38.662Z,69.38
2017-09-29T03:31:10.373Z,69.34
2017-09-29T03:31:42.029Z,69.33
2017-09-29T03:32:13.673Z,69.38
2017-09-29T03:32:45.318Z,69.43
2017-09-29T03:33:16.965Z,69.37
2017-09-29T03:33:48.613Z,69.37
2017-09-29T03:34:20.257Z,69.42
2017-09-29T03:34:51.910Z,69.43
2017-09-29T03:35:23.562Z,69.41
2017-09-29T03:35:55.450Z,69.46
2017-09-29T03:36:27.137Z,69.42
2017-09-29T03:36:58.785Z,69.47
2017-09-29T03:37:30.434Z,69.47
2017-09-29T03:38:02.318Z,69.53
2017-09-29T03:38:33.970Z,69.47
2017-09-29T03:39:05.740Z,69.58
2017-09-29T03:39:37.385Z,69.54
2017-09-29T03:40:09.024Z,69.58
2017-09-29T03:40:40.669Z,69.58
2017-09-29T03:41:12.317Z,69.58
2017-09-29T03:41:44.133Z,69.54
2017-09-29T03:42:15.782Z,69.52
2017-09-29T03:42:47.477Z,69.55
2017-09-29T03:43:19.353Z,69.60
2017-09-29T03:43:51.312Z,69.51
2017-09-29T03:44:22.971Z,69.55
2017-09-29T03:44:54.618Z,69.61
2017-09-29T03:45:26.262Z,69.63
2017-09-29T03:45:57.909Z,69.58
2017-09-29T03:46:29.549Z,69.62
2017-09-29T03:47:01.190Z,69.63
2017-09-29T03:47:33.112Z,69.61
2017-09-29T03:48:04.810Z,69.56
2017-09-29T03:48:36.457Z,69.61
2017-09-29T03:49:08.346Z,69.54
2017-09-29T03:49:41.501Z,69.65
2017-09-29T03:50:14.070Z,69.70
2017-09-29T03:50:46.473Z,69.62
2017-09-29T03:51:18.893Z,69.67
2017-09-29T03:51:51.449Z,69.72
2017-09-29T03:52:24.940Z,69.77
2017-09-29T03:52:57.194Z,69.73
2017-09-29T03:53:29.645Z,69.69
2017-09-29T03:54:02.014Z,69.77
2017-09-29T03:54:34.310Z,69.76
2017-09-29T03:55:06.577Z,69.78
2017-09-29T03:55:38.785Z,69.86
2017-09-29T03:56:11.345Z,69.76
2017-09-29T03:56:43.601Z,69.84
2017-09-29T03:57:15.858Z,69.84
2017-09-29T03:57:48.119Z,69.88
2017-09-29T03:58:20.401Z,69.90
2017-09-29T03:58:52.934Z,69.98
2017-09-29T03:59:24.593Z,69.98
2017-09-29T03:59:56.479Z,69.98
2017-09-29T04:00:28.185Z,70.00
2017-09-29T04:01:00.136Z,69.99
2017-09-29T04:01:32.083Z,70.06
2017-09-29T04:02:04.034Z,70.00
2017-09-29T04:02:35.681Z,70.04
2017-09-29T04:03:07.325Z,70.02
2017-09-29T04:03:38.973Z,70.07
2017-09-29T04:04:10.617Z,70.07
2017-09-29T04:04:42.269Z,70.09
2017-09-29T04:05:14.191Z,70.08
2017-09-29T04:05:46.111Z,70.10
2017-09-29T04:06:17.798Z,70.10
2017-09-29T04:06:49.449Z,70.13
2017-09-29T04:07:21.089Z,70.15
2017-09-29T04:07:52.741Z,70.14
2017-09-29T04:08:24.393Z,70.16
2017-09-29T04:08:56.045Z,70.16
2017-09-29T04:09:27.689Z,70.13
2017-09-29T04:09:59.576Z,70.16
2017-09-29T04:10:31.347Z,70.14
2017-09-29T04:11:02.998Z,70.15
2017-09-29T04:11:34.642Z,70.15
2017-09-29T04:12:06.294Z,70.12
2017-09-29T04:12:38.099Z,70.19
2017-09-29T04:13:09.797Z,70.16
2017-09-29T04:13:41.441Z,70.18
2017-09-29T04:14:13.096Z,70.22
2017-09-29T04:14:44.974Z,70.23
2017-09-29T04:15:16.621Z,70.23
2017-09-29T04:15:48.269Z,70.21
2017-09-29T04:16:19.913Z,70.25
2017-09-29T04:16:51.561Z,70.26
2017-09-29T04:17:23.201Z,70.24
2017-09-29T04:17:54.845Z,70.23
2017-09-29T04:18:26.533Z,70.25
2017-09-29T04:18:58.416Z,70.22
2017-09-29T04:19:30.065Z,70.24
2017-09-29T04:20:01.710Z,70.22
2017-09-29T04:20:33.357Z,70.24
2017-09-29T04:21:05.001Z,70.22
2017-09-29T04:21:36.681Z,70.23
2017-09-29T04:22:08.564Z,70.18
2017-09-29T04:22:40.217Z,70.19
2017-09-29T04:23:11.866Z,70.17
2017-09-29T04:23:43.518Z,70.17
2017-09-29T04:24:15.162Z,70.14
2017-09-29T04:24:46.805Z,70.18
2017-09-29T04:25:18.454Z,70.16
2017-09-29T04:25:50.097Z,70.15
2017-09-29T04:26:21.742Z,70.16
2017-09-29T04:26:53.385Z,70.12
2017-09-29T04:27:25.274Z,70.15
2017-09-29T04:27:56.941Z,70.12
2017-09-29T04:28:28.892Z,70.12
2017-09-29T04:29:00.542Z,70.12
2017-09-29T04:29:32.186Z,70.11
2017-09-29T04:30:03.846Z,70.10
2017-09-29T04:30:35.494Z,70.11
2017-09-29T04:31:07.144Z,70.11
2017-09-29T04:31:38.796Z,70.10
2017-09-29T04:32:10.442Z,70.09
2017-09-29T04:32:42.335Z,70.07
2017-09-29T04:33:14.284Z,70.05
2017-09-29T04:33:45.934Z,70.05
2017-09-29T04:34:17.581Z,70.04
2017-09-29T04:34:49.225Z,70.04
2017-09-29T04:35:20.870Z,70.05
2017-09-29T04:35:52.801Z,70.05
2017-09-29T04:36:24.449Z,70.02
2017-09-29T04:36:56.089Z,70.04
2017-09-29T04:37:27.968Z,70.04
2017-09-29T04:37:59.613Z,70.03
2017-09-29T04:38:31.253Z,70.06
2017-09-29T04:39:02.901Z,70.06
2017-09-29T04:39:34.541Z,70.06
2017-09-29T04:40:06.193Z,70.06
2017-09-29T04:40:37.897Z,70.05
2017-09-29T04:41:09.542Z,70.04
2017-09-29T04:41:41.186Z,70.05
2017-09-29T04:42:12.833Z,70.08
2017-09-29T04:42:44.521Z,70.09
2017-09-29T04:43:16.477Z,70.06
2017-09-29T04:43:48.350Z,70.09
2017-09-29T04:44:20.173Z,70.08
2017-09-29T04:44:51.942Z,70.07
2017-09-29T04:45:23.819Z,70.07
2017-09-29T04:45:55.465Z,70.09
2017-09-29T04:46:27.105Z,70.08
2017-09-29T04:46:58.745Z,70.09
2017-09-29T04:47:30.385Z,70.08
2017-09-29T04:48:02.033Z,70.10
2017-09-29T04:48:33.682Z,70.11
2017-09-29T04:49:05.328Z,70.09
2017-09-29T04:49:36.981Z,70.06
2017-09-29T04:50:08.632Z,70.05
2017-09-29T04:50:40.281Z,70.11
2017-09-29T04:51:11.964Z,70.08
2017-09-29T04:51:43.613Z,70.12
2017-09-29T04:52:15.257Z,70.12
2017-09-29T04:52:46.905Z,70.08
2017-09-29T04:53:18.797Z,70.08
2017-09-29T04:53:50.464Z,70.08
2017-09-29T04:54:22.343Z,70.09
2017-09-29T04:54:53.997Z,70.09
2017-09-29T04:55:25.649Z,70.09
2017-09-29T04:55:57.298Z,70.07
2017-09-29T04:56:28.952Z,70.06
2017-09-29T04:57:00.594Z,70.08
2017-09-29T04:57:32.242Z,70.07
2017-09-29T04:58:03.914Z,70.07
2017-09-29T04:58:35.562Z,70.12
2017-09-29T04:59:07.205Z,70.10
2017-09-29T04:59:38.850Z,70.12
2017-09-29T05:00:10.498Z,70.12
2017-09-29T05:00:42.141Z,70.12
2017-09-29T05:01:13.792Z,70.09
2017-09-29T05:01:45.437Z,70.12
2017-09-29T05:02:17.081Z,70.10
2017-09-29T05:02:48.725Z,70.09
2017-09-29T05:03:20.409Z,70.14
2017-09-29T05:03:52.171Z,70.11
2017-09-29T05:04:23.921Z,70.10
2017-09-29T05:04:55.569Z,70.14
2017-09-29T05:05:27.277Z,70.09
2017-09-29T05:05:59.155Z,70.10
2017-09-29T05:06:31.103Z,70.12
2017-09-29T05:07:02.749Z,70.12
2017-09-29T05:07:34.396Z,70.13
2017-09-29T05:08:06.050Z,70.16
2017-09-29T05:08:37.697Z,70.13
2017-09-29T05:09:09.343Z,70.13
2017-09-29T05:09:40.986Z,70.09
2017-09-29T05:10:12.630Z,70.12
2017-09-29T05:10:44.545Z,70.10
2017-09-29T05:11:16.394Z,70.11
2017-09-29T05:11:48.045Z,70.13
2017-09-29T05:12:19.777Z,70.12
2017-09-29T05:12:51.727Z,70.12
2017-09-29T05:13:23.377Z,70.11
2017-09-29T05:13:55.021Z,70.12
2017-09-29T05:14:26.673Z,70.11
2017-09-29T05:14:58.313Z,70.12
2017-09-29T05:15:29.962Z,70.13
2017-09-29T05:16:01.618Z,70.09
2017-09-29T05:16:33.265Z,70.08
2017-09-29T05:17:05.170Z,70.11
2017-09-29T05:17:36.865Z,70.09
2017-09-29T05:18:08.525Z,70.06
2017-09-29T05:18:40.403Z,70.07
2017-09-29T05:19:12.297Z,70.02
2017-09-29T05:19:43.945Z,70.07
2017-09-29T05:20:15.641Z,70.09
2017-09-29T05:20:47.293Z,70.11
2017-09-29T05:21:18.933Z,70.12
2017-09-29T05:21:50.577Z,70.09
2017-09-29T05:22:22.226Z,70.05
2017-09-29T05:22:53.869Z,70.06
2017-09-29T05:23:25.510Z,70.07
2017-09-29T05:23:57.157Z,70.06
2017-09-29T05:24:28.802Z,70.06
2017-09-29T05:25:00.449Z,70.06
2017-09-29T05:25:32.133Z,70.06
2017-09-29T05:26:03.976Z,70.08
2017-09-29T05:26:35.646Z,70.07
2017-09-29T05:27:07.473Z,70.04
2017-09-29T05:27:39.237Z,70.04
2017-09-29T05:28:11.186Z,70.01
2017-09-29T05:28:43.068Z,70.02
2017-09-29T05:29:14.709Z,70.01
2017-09-29T05:29:46.353Z,70.02
2017-09-29T05:30:18.062Z,70.03
2017-09-29T05:30:49.717Z,70.03
2017-09-29T05:31:21.357Z,70.00
2017-09-29T05:31:53.001Z,70.00
2017-09-29T05:32:24.645Z,69.98
2017-09-29T05:32:56.289Z,69.98
2017-09-29T05:33:27.933Z,69.99
2017-09-29T05:33:59.573Z,70.00
2017-09-29T05:34:31.221Z,69.91
2017-09-29T05:35:02.865Z,69.93
2017-09-29T05:35:34.787Z,69.98
2017-09-29T05:36:06.676Z,69.95
2017-09-29T05:36:38.326Z,69.95
2017-09-29T05:37:09.974Z,69.95
2017-09-29T05:37:41.622Z,69.90
2017-09-29T05:38:13.303Z,69.86
2017-09-29T05:38:45.141Z,69.91
2017-09-29T05:39:16.894Z,69.90
2017-09-29T05:39:48.845Z,69.91
2017-09-29T05:40:20.521Z,69.90
2017-09-29T05:40:52.435Z,69.91
2017-09-29T05:41:24.330Z,69.92
2017-09-29T05:41:55.976Z,69.95
2017-09-29T05:42:27.625Z,69.91
2017-09-29T05:42:59.310Z,69.89
2017-09-29T05:43:30.962Z,69.89
2017-09-29T05:44:02.610Z,69.90
2017-09-29T05:44:34.254Z,69.86
2017-09-29T05:45:05.901Z,69.83
2017-09-29T05:45:37.549Z,69.82
2017-09-29T05:46:09.238Z,69.77
2017-09-29T05:46:40.930Z,69.78
2017-09-29T05:47:12.573Z,69.78
2017-09-29T05:47:44.221Z,69.72
2017-09-29T05:48:15.865Z,69.69
2017-09-29T05:48:47.513Z,69.60
2017-09-29T05:49:19.165Z,69.62
2017-09-29T05:49:50.814Z,69.55
2017-09-29T05:50:22.461Z,69.52
2017-09-29T05:50:54.111Z,69.51
2017-09-29T05:51:25.887Z,69.47
2017-09-29T05:51:57.725Z,69.41
2017-09-29T05:52:29.398Z,69.46
2017-09-29T05:53:01.041Z,69.41
2017-09-29T05:53:32.691Z,69.40
2017-09-29T05:54:04.332Z,69.40
2017-09-29T05:54:35.975Z,69.42
2017-09-29T05:55:07.629Z,69.36
2017-09-29T05:55:39.277Z,69.42
2017-09-29T05:56:10.925Z,69.37
2017-09-29T05:56:42.572Z,69.30
2017-09-29T05:57:14.213Z,69.25
2017-09-29T05:57:45.897Z,69.29
2017-09-29T05:58:17.731Z,69.20
2017-09-29T05:58:49.489Z,69.28
2017-09-29T05:59:21.144Z,69.23
2017-09-29T05:59:52.786Z,69.21
2017-09-29T06:00:24.469Z,69.29
2017-09-29T06:00:56.118Z,69.23
2017-09-29T06:01:28.005Z,69.25
2017-09-29T06:01:59.846Z,69.25
2017-09-29T06:02:31.597Z,69.22
2017-09-29T06:03:03.301Z,69.23
2017-09-29T06:03:34.950Z,69.19
2017-09-29T06:04:06.830Z,69.21
2017-09-29T06:04:38.713Z,69.22
2017-09-29T06:05:10.388Z,69.22
2017-09-29T06:05:42.068Z,69.22
2017-09-29T06:06:13.718Z,69.23
2017-09-29T06:06:45.361Z,69.21
2017-09-29T06:07:17.009Z,69.22
2017-09-29T06:07:48.648Z,69.20
2017-09-29T06:08:20.341Z,69.24
2017-09-29T06:08:52.175Z,69.21
2017-09-29T06:09:23.825Z,69.20
2017-09-29T06:09:55.501Z,69.22
2017-09-29T06:10:27.454Z,69.23
2017-09-29T06:10:59.403Z,69.25
2017-09-29T06:11:31.358Z,69.24
2017-09-29T06:12:03.009Z,69.23
2017-09-29T06:12:34.649Z,69.23
2017-09-29T06:13:06.293Z,69.23
2017-09-29T06:13:37.969Z,69.20
2017-09-29T06:14:09.663Z,69.17
2017-09-29T06:14:41.511Z,69.22
2017-09-29T06:15:13.162Z,69.21
2017-09-29T06:15:44.814Z,69.24
2017-09-29T06:16:16.475Z,69.18
2017-09-29T06:16:48.126Z,69.19
2017-09-29T06:17:19.777Z,69.20
2017-09-29T06:17:51.421Z,69.23
2017-09-29T06:18:23.300Z,69.23
2017-09-29T06:18:55.071Z,69.19
2017-09-29T06:19:26.757Z,69.24
2017-09-29T06:19:58.405Z,69.21
2017-09-29T06:20:30.187Z,69.21
2017-09-29T06:21:01.837Z,69.21
2017-09-29T06:21:33.482Z,69.21
2017-09-29T06:22:05.134Z,69.20
2017-09-29T06:22:36.776Z,69.23
2017-09-29T06:23:08.425Z,69.19
2017-09-29T06:23:40.066Z,69.20
2017-09-29T06:24:11.709Z,69.19
2017-09-29T06:24:43.354Z,69.15
2017-09-29T06:25:14.997Z,69.18
2017-09-29T06:25:46.645Z,69.19
2017-09-29T06:26:18.286Z,69.23
2017-09-29T06:26:49.932Z,69.19
2017-09-29T06:27:21.773Z,69.22
2017-09-29T06:27:53.426Z,69.20
2017-09-29T06:28:25.078Z,69.22
2017-09-29T06:28:56.725Z,69.23
2017-09-29T06:29:28.430Z,69.24
2017-09-29T06:30:00.074Z,69.23
2017-09-29T06:30:31.726Z,69.25
2017-09-29T06:31:03.374Z,69.24
2017-09-29T06:31:35.013Z,69.23
2017-09-29T06:32:06.661Z,69.24
2017-09-29T06:32:38.314Z,69.24
2017-09-29T06:33:09.958Z,69.26
2017-09-29T06:33:41.602Z,69.22
2017-09-29T06:34:13.477Z,69.23
2017-09-29T06:34:45.440Z,69.24
2017-09-29T06:35:17.089Z,69.24
2017-09-29T06:35:48.734Z,69.26
2017-09-29T06:36:20.377Z,69.24
2017-09-29T06:36:52.026Z,69.24
2017-09-29T06:37:23.670Z,69.23
2017-09-29T06:37:55.313Z,69.22
2017-09-29T06:38:26.957Z,69.22
2017-09-29T06:38:58.614Z,69.24
2017-09-29T06:39:30.524Z,69.22
2017-09-29T06:40:02.175Z,69.25
2017-09-29T06:40:33.821Z,69.25
2017-09-29T06:41:05.470Z,69.28
2017-09-29T06:41:37.112Z,69.28
2017-09-29T06:42:08.761Z,69.25
2017-09-29T06:42:40.405Z,69.25
2017-09-29T06:43:12.053Z,69.29
2017-09-29T06:43:43.966Z,69.30
2017-09-29T06:44:15.617Z,69.30
2017-09-29T06:44:47.261Z,69.29
2017-09-29T06:45:18.941Z,69.30
2017-09-29T06:45:50.588Z,69.27
2017-09-29T06:46:22.236Z,69.28
2017-09-29T06:46:54.065Z,69.31
2017-09-29T06:47:25.767Z,69.31
2017-09-29T06:47:57.716Z,69.32
2017-09-29T06:48:29.634Z,69.33
2017-09-29T06:49:01.322Z,69.35